createdAt,value
2019-05-03T00:02:21.768Z,32.30
2019-05-03T00:04:53.439Z,35.92
2019-05-03T00:07:22.701Z,29.45
2019-05-03T00:09:52.358Z,35.70
2019-05-03T00:12:22.378Z,34.60
2019-05-03T00:14:55.581Z,36.13
2019-05-03T00:17:25.879Z,33.53
2019-05-03T00:19:55.482Z,39.00
2019-05-03T00:22:25.093Z,38.48
2019-05-03T00:25:05.337Z,40.20
2019-05-03T00:27:26.781Z,36.58
2019-05-03T00:29:57.086Z,35.70
2019-05-03T00:32:28.401Z,40.83
2019-05-03T00:35:01.866Z,42.75
2019-05-03T00:37:33.604Z,38.48
2019-05-03T00:40:08.539Z,43.98
2019-05-03T00:42:38.964Z,42.75
2019-05-03T00:45:09.700Z,43.87
2019-05-03T00:47:42.016Z,47.40
2019-05-03T00:50:12.098Z,52.40
2019-05-03T00:52:42.366Z,43.02
2019-05-03T00:55:16.947Z,45.20
2019-05-03T00:57:46.058Z,40.33
2019-05-03T01:00:16.079Z,45.17
2019-05-03T01:02:46.083Z,47.85
2019-05-03T01:05:16.383Z,44.13
2019-05-03T01:07:46.677Z,46.92
2019-05-03T01:10:16.840Z,51.53
2019-05-03T01:12:46.739Z,49.53
2019-05-03T01:15:24.226Z,46.10
2019-05-03T01:17:54.142Z,45.92
2019-05-03T01:20:24.474Z,39.83
2019-05-03T01:22:54.942Z,41.45
2019-05-03T01:25:32.136Z,45.05
2019-05-03T01:27:56.756Z,41.92
2019-05-03T01:30:27.061Z,44.08
2019-05-03T01:32:56.719Z,44.40
2019-05-03T01:35:26.730Z,45.85
2019-05-03T01:37:56.988Z,43.73
2019-05-03T01:40:26.963Z,41.98
2019-05-03T01:42:57.549Z,40.88
2019-05-03T01:45:27.810Z,42.85
2019-05-03T01:48:06.025Z,39.70
2019-05-03T01:50:48.247Z,42.55
2019-05-03T01:53:19.474Z,42.73
2019-05-03T01:55:53.005Z,39.08
2019-05-03T01:58:23.703Z,35.08
2019-05-03T02:01:03.243Z,39.08
2019-05-03T02:03:41.868Z,40.58
2019-05-03T02:06:11.947Z,39.80
2019-05-03T02:08:41.888Z,38.30
2019-05-03T02:11:11.674Z,38.50
2019-05-03T02:13:42.767Z,39.23
2019-05-03T02:16:12.776Z,39.73
2019-05-03T02:18:42.749Z,41.58
2019-05-03T02:21:13.079Z,43.50
2019-05-03T02:23:43.126Z,39.05
2019-05-03T02:26:12.814Z,45.45
2019-05-03T02:28:42.767Z,40.95
2019-05-03T02:31:13.699Z,42.00
2019-05-03T02:33:44.512Z,36.63
2019-05-03T02:36:14.932Z,40.12
2019-05-03T02:38:45.283Z,42.85
2019-05-03T02:41:14.523Z,41.10
2019-05-03T02:43:47.754Z,38.23
2019-05-03T02:46:29.995Z,38.63
2019-05-03T02:49:16.017Z,38.75
2019-05-03T02:51:46.455Z,42.88
2019-05-03T02:54:16.628Z,44.08
2019-05-03T02:56:46.723Z,41.10
2019-05-03T02:59:17.055Z,39.58
2019-05-03T03:01:47.789Z,38.90
2019-05-03T03:04:18.943Z,41.13
2019-05-03T03:06:49.751Z,41.10
2019-05-03T03:09:25.595Z,41.20
2019-05-03T03:11:56.347Z,36.20
2019-05-03T03:14:28.059Z,39.48
2019-05-03T03:17:00.899Z,42.08
2019-05-03T03:19:35.238Z,40.90
2019-05-03T03:22:08.034Z,46.02
2019-05-03T03:24:40.556Z,41.73
2019-05-03T03:27:16.463Z,45.43
2019-05-03T03:29:49.119Z,46.25
2019-05-03T03:32:29.356Z,40.45
2019-05-03T03:35:10.619Z,46.77
2019-05-03T03:37:35.755Z,42.58
2019-05-03T03:40:06.257Z,42.75
2019-05-03T03:42:38.252Z,41.45
2019-05-03T03:45:09.289Z,41.85
2019-05-03T03:47:40.595Z,43.55
2019-05-03T03:50:11.060Z,41.88
2019-05-03T03:52:45.170Z,42.70
2019-05-03T03:55:15.858Z,44.18
2019-05-03T03:57:46.790Z,47.67
2019-05-03T04:00:17.534Z,46.25
2019-05-03T04:02:47.129Z,50.30
2019-05-03T04:05:17.212Z,47.58
2019-05-03T04:07:47.172Z,47.00
2019-05-03T04:10:17.943Z,46.55
2019-05-03T04:12:48.317Z,46.48
2019-05-03T04:15:40.043Z,42.70
2019-05-03T04:18:32.975Z,45.88
2019-05-03T04:21:05.564Z,41.33
2019-05-03T04:23:36.023Z,43.02
2019-05-03T04:26:07.153Z,46.15
2019-05-03T04:28:40.791Z,43.65
2019-05-03T04:31:10.458Z,42.60
2019-05-03T04:33:40.539Z,43.05
2019-05-03T04:36:10.853Z,42.27
2019-05-03T04:38:41.201Z,41.92
2019-05-03T04:41:10.813Z,44.83
2019-05-03T04:43:40.817Z,40.25
2019-05-03T04:46:16.345Z,40.60
2019-05-03T04:48:46.422Z,42.40
2019-05-03T04:51:17.203Z,47.20
2019-05-03T04:53:51.726Z,48.48
2019-05-03T04:56:22.365Z,42.58
2019-05-03T04:58:52.982Z,46.63
2019-05-03T05:01:23.002Z,46.70
2019-05-03T05:03:53.021Z,51.55
2019-05-03T05:06:25.590Z,51.85
2019-05-03T05:08:55.214Z,53.68
2019-05-03T05:11:26.397Z,55.95
2019-05-03T05:13:56.708Z,49.77
2019-05-03T05:16:26.701Z,49.63
2019-05-03T05:19:01.444Z,53.10
2019-05-03T05:21:35.825Z,54.08
2019-05-03T05:24:06.580Z,51.63
2019-05-03T05:26:45.021Z,58.58
2019-05-03T05:29:16.317Z,50.25
2019-05-03T05:31:46.349Z,57.78
2019-05-03T05:34:15.666Z,55.23
2019-05-03T05:36:46.050Z,57.80
2019-05-03T05:39:18.795Z,56.20
2019-05-03T05:41:49.518Z,55.33
2019-05-03T05:44:19.391Z,55.73
2019-05-03T05:47:06.818Z,58.15
2019-05-03T05:49:47.599Z,58.05
2019-05-03T05:52:17.905Z,70.42
2019-05-03T05:54:52.362Z,59.38
2019-05-03T05:57:41.718Z,60.48
2019-05-03T06:00:18.963Z,69.58
2019-05-03T06:02:55.225Z,65.85
2019-05-03T06:05:25.426Z,62.50
2019-05-03T06:08:06.768Z,56.00
2019-05-03T06:10:48.663Z,62.27
2019-05-03T06:13:32.032Z,58.68
2019-05-03T06:16:15.372Z,54.75
2019-05-03T06:19:19.147Z,59.93
2019-05-03T06:22:11.305Z,61.18
2019-05-03T06:24:46.904Z,60.17
2019-05-03T06:27:24.441Z,56.45
2019-05-03T06:29:56.171Z,53.20
2019-05-03T06:32:30.331Z,53.98
2019-05-03T06:35:00.013Z,57.62
2019-05-03T06:37:35.403Z,54.63
2019-05-03T06:40:06.427Z,53.60
2019-05-03T06:42:37.050Z,55.65
2019-05-03T06:45:11.535Z,51.18
2019-05-03T06:47:40.387Z,50.92
2019-05-03T06:50:11.963Z,45.92
2019-05-03T06:52:44.456Z,49.40
2019-05-03T06:55:14.561Z,47.85
2019-05-03T06:57:49.580Z,55.98
2019-05-03T07:00:45.107Z,55.23
2019-05-03T07:03:35.320Z,61.98
2019-05-03T07:06:37.480Z,65.20
2019-05-03T07:09:15.991Z,78.22
2019-05-03T07:11:46.619Z,64.30
2019-05-03T07:14:16.227Z,68.67
2019-05-03T07:16:46.238Z,72.00
2019-05-03T07:19:16.900Z,63.63
2019-05-03T07:21:47.146Z,61.70
2019-05-03T07:24:40.635Z,61.75
2019-05-03T07:27:07.713Z,42.58
2019-05-03T07:29:38.082Z,44.75
2019-05-03T07:32:08.659Z,46.08
2019-05-03T07:34:38.687Z,45.10
2019-05-03T07:37:08.923Z,40.48
2019-05-03T07:39:39.286Z,43.92
2019-05-03T07:42:08.942Z,43.15
2019-05-03T07:44:39.385Z,42.38
2019-05-03T07:47:09.239Z,41.13
2019-05-03T07:49:38.518Z,37.55
2019-05-03T07:52:08.620Z,37.75
2019-05-03T07:54:38.683Z,31.65
2019-05-03T07:57:36.713Z,29.82
2019-05-03T08:00:07.663Z,25.65
2019-05-03T08:02:37.935Z,27.60
2019-05-03T08:05:08.503Z,22.48
2019-05-03T08:07:38.606Z,23.90
2019-05-03T08:10:09.628Z,22.82
2019-05-03T08:12:39.370Z,25.62
2019-05-03T08:15:09.822Z,26.80
2019-05-03T08:17:39.498Z,24.25
2019-05-03T08:20:09.447Z,25.60
2019-05-03T08:22:40.195Z,24.00
2019-05-03T08:25:09.834Z,25.27
2019-05-03T08:27:39.798Z,23.75
2019-05-03T08:30:11.183Z,23.25
2019-05-03T08:33:09.090Z,18.85
2019-05-03T08:35:41.479Z,17.17
2019-05-03T08:38:11.472Z,17.90
2019-05-03T08:40:45.509Z,17.27
2019-05-03T08:43:15.713Z,20.75
2019-05-03T08:45:46.239Z,14.90
2019-05-03T08:48:16.263Z,17.45
2019-05-03T08:50:46.556Z,19.23
2019-05-03T08:53:16.563Z,22.98
2019-05-03T08:55:47.215Z,19.23
2019-05-03T08:58:17.290Z,21.30
2019-05-03T09:00:47.607Z,17.23
2019-05-03T09:03:17.678Z,16.40
2019-05-03T09:05:49.787Z,23.22
2019-05-03T09:08:19.444Z,14.80
2019-05-03T09:11:02.234Z,18.15
2019-05-03T09:13:48.298Z,18.50
2019-05-03T09:16:18.875Z,18.15
2019-05-03T09:18:49.438Z,21.15
2019-05-03T09:21:19.760Z,20.40
2019-05-03T09:23:49.372Z,17.30
2019-05-03T09:26:19.397Z,16.52
2019-05-03T09:28:49.812Z,19.60
2019-05-03T09:31:19.888Z,17.55
2019-05-03T09:33:49.870Z,17.55
2019-05-03T09:36:19.796Z,19.70
2019-05-03T09:38:49.474Z,16.05
2019-05-03T09:41:20.163Z,16.02
2019-05-03T09:43:50.795Z,15.78
2019-05-03T09:46:23.481Z,18.90
2019-05-03T09:48:58.507Z,16.55
2019-05-03T09:51:25.570Z,16.40
2019-05-03T09:54:01.143Z,16.48
2019-05-03T09:56:55.876Z,16.48
2019-05-03T09:59:19.971Z,17.92
2019-05-03T10:01:49.660Z,18.40
2019-05-03T10:04:19.748Z,15.25
2019-05-03T10:06:49.680Z,15.45
2019-05-03T10:09:19.973Z,15.25
2019-05-03T10:11:50.401Z,15.98
2019-05-03T10:14:20.752Z,14.45
2019-05-03T10:17:15.938Z,17.20
2019-05-03T10:19:45.956Z,13.90
2019-05-03T10:22:17.816Z,13.93
2019-05-03T10:24:47.932Z,14.68
2019-05-03T10:27:17.943Z,15.72
2019-05-03T10:29:48.220Z,15.83
2019-05-03T10:32:27.587Z,14.40
2019-05-03T10:35:01.773Z,13.98
2019-05-03T10:37:33.061Z,15.18
2019-05-03T10:40:07.761Z,13.32
2019-05-03T10:42:36.317Z,14.70
2019-05-03T10:45:06.909Z,13.13
2019-05-03T10:47:36.930Z,16.07
2019-05-03T10:50:07.675Z,15.72
2019-05-03T10:52:44.699Z,14.18
2019-05-03T10:55:15.931Z,15.08
2019-05-03T10:57:48.865Z,17.23
2019-05-03T11:00:42.406Z,16.50
2019-05-03T11:02:59.262Z,15.48
2019-05-03T11:05:29.671Z,15.93
2019-05-03T11:07:59.787Z,12.85
2019-05-03T11:10:30.145Z,13.85
2019-05-03T11:13:00.238Z,11.40
2019-05-03T11:15:30.547Z,14.95
2019-05-03T11:17:59.878Z,15.13
2019-05-03T11:20:36.459Z,12.98
2019-05-03T11:23:08.269Z,13.03
2019-05-03T11:25:38.879Z,14.43
2019-05-03T11:28:24.957Z,12.18
2019-05-03T11:31:01.826Z,12.20
2019-05-03T11:33:32.855Z,11.85
2019-05-03T11:36:16.271Z,14.10
2019-05-03T11:38:47.811Z,12.95
2019-05-03T11:41:29.524Z,11.38
2019-05-03T11:43:49.599Z,12.35
2019-05-03T11:46:19.716Z,12.25
2019-05-03T11:48:50.395Z,12.00
2019-05-03T11:51:21.107Z,12.23
2019-05-03T11:53:51.461Z,13.25
2019-05-03T11:56:22.395Z,9.68
2019-05-03T11:58:54.865Z,9.40
2019-05-03T12:01:35.804Z,12.00
2019-05-03T12:04:06.823Z,13.18
2019-05-03T12:06:37.065Z,12.63
2019-05-03T12:09:08.338Z,11.97
2019-05-03T12:11:39.401Z,9.10
2019-05-03T12:14:15.238Z,12.98
2019-05-03T12:19:30.448Z,11.12
2019-05-03T12:21:56.069Z,10.95
2019-05-03T12:24:27.417Z,9.88
2019-05-03T12:26:58.242Z,10.68
2019-05-03T12:29:28.701Z,11.85
2019-05-03T12:31:58.847Z,13.30
2019-05-03T12:34:28.948Z,9.50
2019-05-03T12:36:59.279Z,10.68
2019-05-03T12:39:30.505Z,9.35
2019-05-03T12:42:01.018Z,11.70
2019-05-03T12:44:31.060Z,9.78
2019-05-03T12:47:02.650Z,12.90
2019-05-03T12:49:35.598Z,8.65
2019-05-03T12:52:05.490Z,8.88
2019-05-03T12:54:35.774Z,8.43
2019-05-03T12:57:06.448Z,8.80
2019-05-03T13:00:01.015Z,9.33
2019-05-03T13:02:50.016Z,10.53
2019-05-03T13:05:20.028Z,8.90
2019-05-03T13:08:08.279Z,8.13
2019-05-03T13:10:39.023Z,8.40
2019-05-03T13:13:09.067Z,11.33
2019-05-03T13:15:39.920Z,8.98
2019-05-03T13:18:10.258Z,8.43
2019-05-03T13:20:40.862Z,8.90
2019-05-03T13:23:12.949Z,8.78
2019-05-03T13:25:44.749Z,8.13
2019-05-03T13:28:15.308Z,11.53
2019-05-03T13:30:46.232Z,8.73
2019-05-03T13:33:16.446Z,10.63
2019-05-03T13:35:47.167Z,11.73
2019-05-03T13:38:16.796Z,8.88
2019-05-03T13:40:47.512Z,9.95
2019-05-03T13:43:18.235Z,8.95
2019-05-03T13:45:48.267Z,7.83
2019-05-03T13:48:21.007Z,9.63
2019-05-03T13:50:49.376Z,9.70
2019-05-03T13:53:19.559Z,9.15
2019-05-03T13:55:49.340Z,8.98
2019-05-03T13:58:19.648Z,8.25
2019-05-03T14:00:51.234Z,60.80
2019-05-03T14:03:22.400Z,14.18
2019-05-03T14:05:52.503Z,7.10
2019-05-03T14:08:22.695Z,8.68
2019-05-03T14:10:55.547Z,6.47
2019-05-03T14:13:24.719Z,10.43
2019-05-03T14:15:55.041Z,9.70
2019-05-03T14:18:25.657Z,7.85
2019-05-03T14:21:15.113Z,6.75
2019-05-03T14:24:05.117Z,7.42
2019-05-03T14:26:35.132Z,9.73
2019-05-03T14:29:05.698Z,9.35
2019-05-03T14:31:36.469Z,8.18
2019-05-03T14:34:06.200Z,7.70
2019-05-03T14:36:36.706Z,7.05
2019-05-03T14:39:09.902Z,6.72
2019-05-03T14:41:41.001Z,8.80
2019-05-03T14:44:14.542Z,8.50
2019-05-03T14:46:43.215Z,9.30
2019-05-03T14:49:14.850Z,8.03
2019-05-03T14:51:45.690Z,9.70
2019-05-03T14:54:15.797Z,8.63
2019-05-03T14:56:55.065Z,8.28
2019-05-03T14:59:45.195Z,8.15
2019-05-03T15:02:43.529Z,7.53
2019-05-03T15:05:08.868Z,8.13
2019-05-03T15:07:39.535Z,8.30
2019-05-03T15:10:10.104Z,8.08
2019-05-03T15:12:40.615Z,10.95
2019-05-03T15:15:14.492Z,8.98
2019-05-03T15:17:45.748Z,12.30
2019-05-03T15:20:15.720Z,8.85
2019-05-03T15:22:46.066Z,8.35
2019-05-03T15:25:16.345Z,10.78
2019-05-03T15:27:48.573Z,9.33
2019-05-03T15:30:19.203Z,10.85
2019-05-03T15:32:58.849Z,11.60
2019-05-03T15:35:21.588Z,10.82
2019-05-03T15:37:51.607Z,12.55
2019-05-03T15:40:21.682Z,12.33
2019-05-03T15:42:57.677Z,12.53
2019-05-03T15:45:51.527Z,12.55
2019-05-03T15:48:35.140Z,15.05
2019-05-03T15:51:06.156Z,12.30
2019-05-03T15:53:36.595Z,13.15
2019-05-03T15:56:06.308Z,11.75
2019-05-03T15:58:36.631Z,10.00
2019-05-03T16:01:06.690Z,10.10
2019-05-03T16:03:36.723Z,10.63
2019-05-03T16:06:06.732Z,10.38
2019-05-03T16:08:36.865Z,11.45
2019-05-03T16:11:07.080Z,10.95
2019-05-03T16:13:38.399Z,9.75
2019-05-03T16:16:08.555Z,10.08
2019-05-03T16:18:38.920Z,10.10
2019-05-03T16:21:09.313Z,12.15
2019-05-03T16:23:39.082Z,8.38
2019-05-03T16:26:09.069Z,9.40
2019-05-03T16:28:49.206Z,9.90
2019-05-03T16:31:21.529Z,10.98
2019-05-03T16:33:51.654Z,10.05
2019-05-03T16:36:21.588Z,8.93
2019-05-03T16:38:52.104Z,10.05
2019-05-03T16:41:24.684Z,8.70
2019-05-03T16:43:54.380Z,8.13
2019-05-03T16:46:25.965Z,27.82
2019-05-03T16:48:55.851Z,33.05
2019-05-03T16:51:25.867Z,10.78
2019-05-03T16:53:55.685Z,9.38
2019-05-03T16:56:26.453Z,7.05
2019-05-03T16:58:56.965Z,36.03
2019-05-03T17:01:27.730Z,11.68
2019-05-03T17:04:15.598Z,9.05
2019-05-03T17:06:55.317Z,12.40
2019-05-03T17:09:43.009Z,35.48
2019-05-03T17:12:16.921Z,13.43
2019-05-03T17:14:47.442Z,9.15
2019-05-03T17:17:17.020Z,8.23
2019-05-03T17:19:47.155Z,7.70
2019-05-03T17:22:17.302Z,11.03
2019-05-03T17:24:47.380Z,8.28
2019-05-03T17:27:17.053Z,8.40
2019-05-03T17:29:47.788Z,6.80
2019-05-03T17:32:18.180Z,6.78
2019-05-03T17:34:51.154Z,6.62
2019-05-03T17:37:23.200Z,9.08
2019-05-03T17:40:11.483Z,9.50
2019-05-03T17:42:58.961Z,7.33
2019-05-03T17:45:35.095Z,10.15
2019-05-03T17:48:06.058Z,10.35
2019-05-03T17:50:36.951Z,8.28
2019-05-03T17:53:32.275Z,6.33
2019-05-03T17:56:34.976Z,7.67
2019-05-03T17:59:07.894Z,6.45
2019-05-03T18:02:04.776Z,5.83
2019-05-03T18:05:02.415Z,5.80
2019-05-03T18:07:54.580Z,11.53
2019-05-03T18:10:27.112Z,6.08
2019-05-03T18:12:57.587Z,6.97
2019-05-03T18:15:27.675Z,5.95
2019-05-03T18:17:57.981Z,6.65
2019-05-03T18:20:28.661Z,9.33
2019-05-03T18:22:58.348Z,6.95
2019-05-03T18:25:28.056Z,5.90
2019-05-03T18:27:58.114Z,7.95
2019-05-03T18:30:28.497Z,9.80
2019-05-03T18:32:57.779Z,8.98
2019-05-03T18:35:28.028Z,8.05
2019-05-03T18:37:59.406Z,7.92
2019-05-03T18:40:30.812Z,8.68
2019-05-03T18:43:08.880Z,9.28
2019-05-03T18:45:56.394Z,8.05
2019-05-03T18:48:27.151Z,10.38
2019-05-03T18:50:57.630Z,7.97
2019-05-03T18:53:28.373Z,11.38
2019-05-03T18:55:59.119Z,7.25
2019-05-03T18:58:29.502Z,8.60
2019-05-03T19:00:59.949Z,8.65
2019-05-03T19:03:30.335Z,7.60
2019-05-03T19:06:05.260Z,8.80
2019-05-03T19:08:54.316Z,10.20
2019-05-03T19:11:29.677Z,6.12
2019-05-03T19:14:04.709Z,7.03
2019-05-03T19:16:46.798Z,7.37
2019-05-03T19:19:18.183Z,23.40
2019-05-03T19:21:48.612Z,39.05
2019-05-03T19:24:19.043Z,18.37
2019-05-03T19:26:49.571Z,15.88
2019-05-03T19:29:19.279Z,10.45
2019-05-03T19:31:49.648Z,9.68
2019-05-03T19:34:19.953Z,7.72
2019-05-03T19:36:50.848Z,9.08
2019-05-03T19:39:20.866Z,10.20
2019-05-03T19:41:50.886Z,11.43
2019-05-03T19:44:21.332Z,12.82
2019-05-03T19:46:51.262Z,8.30
2019-05-03T19:49:22.048Z,8.08
2019-05-03T19:51:52.335Z,8.53
2019-05-03T19:54:23.523Z,8.98
2019-05-03T19:56:55.578Z,15.15
2019-05-03T19:59:42.816Z,19.73
2019-05-03T20:02:35.185Z,26.97
2019-05-03T20:05:15.120Z,20.45
2019-05-03T20:08:10.107Z,12.73
2019-05-03T20:10:40.551Z,10.10
2019-05-03T20:13:10.974Z,9.58
2019-05-03T20:15:41.755Z,11.18
2019-05-03T20:18:11.420Z,9.73
2019-05-03T20:20:41.639Z,13.22
2019-05-03T20:23:11.457Z,9.25
2019-05-03T20:25:42.409Z,9.45
2019-05-03T20:28:16.361Z,9.23
2019-05-03T20:30:47.059Z,8.20
2019-05-03T20:33:17.495Z,7.58
2019-05-03T20:35:47.199Z,11.88
2019-05-03T20:38:18.092Z,8.48
2019-05-03T20:40:48.598Z,8.60
2019-05-03T20:43:35.197Z,10.05
2019-05-03T20:46:25.684Z,12.28
2019-05-03T20:48:57.895Z,9.35
2019-05-03T20:51:28.650Z,86.72
2019-05-03T20:53:58.952Z,217.25
2019-05-03T20:56:29.045Z,97.72
2019-05-03T20:58:58.796Z,75.80
2019-05-03T21:01:28.213Z,35.08
2019-05-03T21:03:58.213Z,15.98
2019-05-03T21:06:35.372Z,8.73
2019-05-03T21:08:59.128Z,9.40
2019-05-03T21:11:29.216Z,7.42
2019-05-03T21:13:59.997Z,6.70
2019-05-03T21:16:49.130Z,6.78
2019-05-03T21:19:30.388Z,6.22
2019-05-03T21:22:05.600Z,7.65
2019-05-03T21:24:41.492Z,7.03
2019-05-03T21:27:11.897Z,6.60
2019-05-03T21:29:54.810Z,7.75
2019-05-03T21:32:25.100Z,6.97
2019-05-03T21:34:55.834Z,8.35
2019-05-03T21:37:26.087Z,7.67
2019-05-03T21:39:56.400Z,7.17
2019-05-03T21:42:26.776Z,6.20
2019-05-03T21:44:57.468Z,6.33
2019-05-03T21:47:51.286Z,6.30
2019-05-03T21:50:21.719Z,34.48
2019-05-03T21:52:52.036Z,57.93
2019-05-03T21:55:22.391Z,25.50
2019-05-03T21:57:53.006Z,19.75
2019-05-03T22:00:24.681Z,33.33
2019-05-03T22:02:56.623Z,28.10
2019-05-03T22:05:26.582Z,15.75
2019-05-03T22:07:56.231Z,8.28
2019-05-03T22:10:26.556Z,5.30
2019-05-03T22:12:56.614Z,6.45
2019-05-03T22:15:48.972Z,5.25
2019-05-03T22:18:24.745Z,5.92
2019-05-03T22:21:05.412Z,5.53
2019-05-03T22:23:59.921Z,8.00
2019-05-03T22:29:27.390Z,5.72
2019-05-03T22:31:57.772Z,5.87
2019-05-03T22:34:27.059Z,6.12
2019-05-03T22:36:57.454Z,8.28
2019-05-03T22:39:27.768Z,5.58
2019-05-03T22:41:57.947Z,5.53
2019-05-03T22:44:28.531Z,6.50
2019-05-03T22:46:58.472Z,7.50
2019-05-03T22:49:28.399Z,10.90
2019-05-03T22:51:58.829Z,10.48
2019-05-03T22:54:28.752Z,13.78
2019-05-03T22:56:59.136Z,13.13
2019-05-03T22:59:28.988Z,10.28
2019-05-03T23:01:59.395Z,11.70
2019-05-03T23:04:30.077Z,12.07
2019-05-03T23:07:00.440Z,15.18
2019-05-03T23:09:31.087Z,11.28
2019-05-03T23:12:01.437Z,13.35
2019-05-03T23:14:31.100Z,13.45
2019-05-03T23:17:01.887Z,12.53
2019-05-03T23:19:33.612Z,12.25
2019-05-03T23:22:26.111Z,10.85
2019-05-03T23:24:56.161Z,8.75
2019-05-03T23:27:25.818Z,8.45
2019-05-03T23:29:55.762Z,6.58
2019-05-03T23:32:25.725Z,6.35
2019-05-03T23:34:55.420Z,6.17
2019-05-03T23:37:26.073Z,6.95
2019-05-03T23:39:56.400Z,7.42
2019-05-03T23:42:26.400Z,7.75
2019-05-03T23:44:55.580Z,10.15
2019-05-03T23:47:46.419Z,9.78
2019-05-03T23:50:18.931Z,11.57
2019-05-03T23:52:48.971Z,11.65
2019-05-03T23:55:56.819Z,9.23
2019-05-03T23:58:27.566Z,10.48
